createdAt,value
2018-08-19T00:01:10.675Z,8.00
2018-08-19T00:03:38.858Z,8.77
2018-08-19T00:06:07.191Z,8.27
2018-08-19T00:08:35.591Z,7.90
2018-08-19T00:11:06.789Z,7.70
2018-08-19T00:13:36.025Z,7.37
2018-08-19T00:16:04.982Z,7.35
2018-08-19T00:18:34.963Z,7.03
2018-08-19T00:21:04.593Z,7.60
2018-08-19T00:23:38.729Z,8.20
2018-08-19T00:26:07.189Z,7.80
2018-08-19T00:28:35.573Z,8.50
2018-08-19T00:31:05.421Z,9.80
2018-08-19T00:33:35.041Z,8.40
2018-08-19T00:36:17.597Z,7.83
2018-08-19T00:38:46.561Z,8.00
2018-08-19T00:41:14.930Z,8.57
2018-08-19T00:43:43.360Z,7.78
2018-08-19T00:46:19.002Z,8.45
2018-08-19T00:48:47.419Z,7.53
2018-08-19T00:51:16.045Z,7.73
2018-08-19T00:53:44.478Z,8.63
2018-08-19T00:56:13.106Z,9.23
2018-08-19T00:58:41.574Z,10.03
2018-08-19T01:01:20.729Z,9.00
2018-08-19T01:03:54.373Z,9.43
2018-08-19T01:06:23.304Z,9.57
2018-08-19T01:08:51.992Z,9.17
2018-08-19T01:14:13.313Z,10.50
2018-08-19T01:16:41.858Z,9.25
2018-08-19T01:19:10.733Z,9.07
2018-08-19T01:21:39.079Z,9.70
2018-08-19T01:24:10.222Z,8.87
2018-08-19T01:26:40.944Z,9.75
2018-08-19T01:29:10.533Z,8.10
2018-08-19T01:31:38.975Z,8.70
2018-08-19T01:34:09.426Z,10.20
2018-08-19T01:36:38.154Z,9.50
2018-08-19T01:39:08.340Z,9.10
2018-08-19T01:41:37.661Z,9.97
2018-08-19T01:44:11.722Z,9.80
2018-08-19T01:46:42.813Z,9.63
2018-08-19T01:49:11.593Z,8.70
2018-08-19T01:51:41.415Z,9.27
2018-08-19T01:54:14.833Z,9.80
2018-08-19T01:56:43.705Z,10.47
2018-08-19T01:59:12.018Z,10.10
2018-08-19T02:01:50.529Z,10.93
2018-08-19T02:04:19.346Z,9.90
2018-08-19T02:06:48.021Z,9.80
2018-08-19T02:09:17.693Z,10.70
2018-08-19T02:11:54.774Z,11.90
2018-08-19T02:14:23.457Z,10.47
2018-08-19T02:16:53.257Z,10.03
2018-08-19T02:19:21.609Z,10.93
2018-08-19T02:21:51.165Z,10.75
2018-08-19T02:24:19.522Z,10.17
2018-08-19T02:26:47.925Z,10.00
2018-08-19T02:29:34.725Z,12.17
2018-08-19T02:32:04.259Z,9.77
2018-08-19T02:34:34.661Z,12.00
2018-08-19T02:37:11.584Z,10.60
2018-08-19T02:39:42.901Z,11.60
2018-08-19T02:42:25.445Z,11.80
2018-08-19T02:45:01.157Z,11.97
2018-08-19T02:47:29.381Z,11.63
2018-08-19T02:49:57.489Z,12.23
2018-08-19T02:52:28.546Z,12.50
2018-08-19T02:54:58.662Z,11.20
2018-08-19T02:57:28.305Z,11.30
2018-08-19T02:59:57.161Z,11.70
2018-08-19T03:02:31.179Z,13.70
2018-08-19T03:05:00.552Z,14.63
2018-08-19T03:07:30.002Z,14.43
2018-08-19T03:10:04.254Z,14.27
2018-08-19T03:12:32.387Z,14.57
2018-08-19T03:15:00.519Z,15.10
2018-08-19T03:17:29.813Z,15.80
2018-08-19T03:19:59.290Z,14.33
2018-08-19T03:22:28.025Z,15.27
2018-08-19T03:24:58.144Z,15.70
2018-08-19T03:27:26.605Z,15.57
2018-08-19T03:29:56.561Z,16.17
2018-08-19T03:32:25.401Z,16.12
2018-08-19T03:35:04.058Z,17.57
2018-08-19T03:37:32.549Z,15.40
2018-08-19T03:40:01.298Z,17.48
2018-08-19T03:42:29.989Z,17.63
2018-08-19T03:45:21.994Z,17.80
2018-08-19T03:47:51.839Z,19.40
2018-08-19T03:50:21.377Z,17.90
2018-08-19T03:52:50.508Z,19.47
2018-08-19T03:55:24.209Z,19.50
2018-08-19T03:57:53.266Z,18.30
2018-08-19T04:00:21.772Z,19.97
2018-08-19T04:02:50.509Z,20.62
2018-08-19T04:05:24.709Z,20.37
2018-08-19T04:07:53.172Z,22.20
2018-08-19T04:10:21.611Z,19.90
2018-08-19T04:12:50.881Z,19.92
2018-08-19T04:15:19.613Z,21.50
2018-08-19T04:17:47.738Z,21.20
2018-08-19T04:20:16.599Z,23.07
2018-08-19T04:22:45.097Z,22.80
2018-08-19T04:28:04.764Z,23.40
2018-08-19T04:30:33.198Z,24.00
2018-08-19T04:33:01.781Z,22.67
2018-08-19T04:35:30.225Z,21.97
2018-08-19T04:37:59.041Z,20.63
2018-08-19T04:40:27.149Z,23.00
2018-08-19T04:42:55.894Z,22.65
2018-08-19T04:45:24.333Z,21.50
2018-08-19T04:47:53.206Z,22.10
2018-08-19T04:50:21.925Z,21.25
2018-08-19T04:52:50.373Z,24.27
2018-08-19T04:55:19.073Z,22.00
2018-08-19T04:57:48.582Z,22.37
2018-08-19T05:00:16.717Z,20.63
2018-08-19T05:02:45.505Z,21.57
2018-08-19T05:05:14.138Z,20.53
2018-08-19T05:07:42.586Z,21.70
2018-08-19T05:10:11.266Z,20.77
2018-08-19T05:12:40.317Z,22.35
2018-08-19T05:15:09.043Z,21.85
2018-08-19T05:17:37.497Z,23.60
2018-08-19T05:20:20.609Z,21.27
2018-08-19T05:22:49.058Z,22.20
2018-08-19T05:25:17.166Z,22.40
2018-08-19T05:27:47.177Z,22.22
2018-08-19T05:30:15.614Z,20.13
2018-08-19T05:32:48.281Z,22.30
2018-08-19T05:35:16.686Z,22.15
2018-08-19T05:37:45.425Z,21.40
2018-08-19T05:40:14.049Z,22.20
2018-08-19T05:42:43.293Z,22.48
2018-08-19T05:45:12.253Z,21.73
2018-08-19T05:47:40.997Z,24.45
2018-08-19T05:50:09.338Z,21.50
2018-08-19T05:52:38.390Z,24.02
2018-08-19T05:55:07.360Z,21.62
2018-08-19T05:57:36.557Z,21.25
2018-08-19T06:00:11.530Z,22.00
2018-08-19T06:02:43.038Z,22.25
2018-08-19T06:05:11.481Z,22.10
2018-08-19T06:07:40.437Z,21.15
2018-08-19T06:10:08.769Z,22.20
2018-08-19T06:12:37.513Z,21.60
2018-08-19T06:15:06.317Z,22.43
2018-08-19T06:17:34.767Z,21.77
2018-08-19T06:20:03.174Z,22.47
2018-08-19T06:22:37.098Z,21.87
2018-08-19T06:25:05.533Z,21.47
2018-08-19T06:27:39.693Z,22.20
2018-08-19T06:30:07.898Z,23.10
2018-08-19T06:32:36.590Z,22.80
2018-08-19T06:35:05.349Z,23.13
2018-08-19T06:37:34.301Z,24.47
2018-08-19T06:40:02.699Z,22.40
2018-08-19T06:42:31.453Z,21.40
2018-08-19T06:45:00.173Z,22.90
2018-08-19T06:50:26.847Z,22.40
2018-08-19T06:52:55.581Z,25.00
2018-08-19T06:55:24.294Z,23.50
2018-08-19T06:57:52.674Z,23.70
2018-08-19T07:00:24.629Z,23.40
2018-08-19T07:02:53.318Z,22.37
2018-08-19T07:05:21.431Z,21.67
2018-08-19T07:07:50.091Z,20.40
2018-08-19T07:10:29.436Z,21.63
2018-08-19T07:13:05.465Z,21.70
2018-08-19T07:15:34.298Z,19.20
2018-08-19T07:18:02.773Z,22.07
2018-08-19T07:20:31.053Z,20.57
2018-08-19T07:22:59.518Z,20.07
2018-08-19T07:25:28.094Z,20.77
2018-08-19T07:27:56.853Z,19.17
2018-08-19T07:30:25.454Z,19.03
2018-08-19T07:32:54.149Z,17.10
2018-08-19T07:35:22.717Z,16.17
2018-08-19T07:37:51.134Z,16.37
2018-08-19T07:40:19.566Z,15.67
2018-08-19T07:42:48.622Z,17.75
2018-08-19T07:45:17.361Z,17.07
2018-08-19T07:47:45.788Z,16.07
2018-08-19T07:50:14.163Z,15.73
2018-08-19T07:52:42.626Z,14.43
2018-08-19T07:55:11.300Z,13.90
2018-08-19T07:57:42.042Z,12.83
2018-08-19T08:00:23.230Z,14.20
2018-08-19T08:02:53.225Z,12.33
2018-08-19T08:05:21.577Z,12.00
2018-08-19T08:07:50.430Z,12.33
2018-08-19T08:10:18.773Z,13.90
2018-08-19T08:12:53.998Z,12.80
2018-08-19T08:15:22.742Z,13.10
2018-08-19T08:17:51.506Z,13.03
2018-08-19T08:20:31.298Z,12.07
2018-08-19T08:23:02.219Z,12.60
2018-08-19T08:25:30.665Z,11.43
2018-08-19T08:27:59.662Z,12.15
2018-08-19T08:30:28.347Z,11.60
2018-08-19T08:32:56.825Z,12.10
2018-08-19T08:35:25.602Z,11.17
2018-08-19T08:37:53.932Z,9.83
2018-08-19T08:40:22.525Z,11.20
2018-08-19T08:42:51.028Z,9.67
2018-08-19T08:45:28.229Z,9.70
2018-08-19T08:47:56.371Z,9.40
2018-08-19T08:50:26.057Z,8.10
2018-08-19T08:52:54.354Z,8.30
2018-08-19T08:55:22.709Z,9.27
2018-08-19T08:57:51.107Z,8.18
2018-08-19T09:00:20.293Z,8.27
2018-08-19T09:02:48.678Z,7.33
2018-08-19T09:05:17.048Z,7.50
2018-08-19T09:07:45.444Z,9.03
2018-08-19T09:10:14.374Z,9.87
2018-08-19T09:12:52.345Z,9.40
2018-08-19T09:15:20.445Z,9.53
2018-08-19T09:17:49.178Z,10.65
2018-08-19T09:20:17.457Z,9.20
2018-08-19T09:22:46.604Z,8.80
2018-08-19T09:25:14.928Z,9.43
2018-08-19T09:27:43.985Z,9.30
2018-08-19T09:30:20.193Z,10.17
2018-08-19T09:32:59.023Z,9.18
2018-08-19T09:35:29.433Z,11.70
2018-08-19T09:38:02.993Z,12.17
2018-08-19T09:40:32.257Z,11.83
2018-08-19T09:43:00.719Z,13.50
2018-08-19T09:45:29.149Z,11.60
2018-08-19T09:47:58.067Z,12.13
2018-08-19T09:50:26.563Z,12.17
2018-08-19T09:52:55.258Z,12.37
2018-08-19T09:55:32.873Z,12.50
2018-08-19T09:58:01.726Z,12.90
2018-08-19T10:00:35.623Z,12.20
2018-08-19T10:03:03.789Z,13.03
2018-08-19T10:05:33.925Z,13.60
2018-08-19T10:08:02.070Z,13.13
2018-08-19T10:10:33.573Z,11.60
2018-08-19T10:13:02.339Z,11.03
2018-08-19T10:15:30.815Z,11.33
2018-08-19T10:17:59.195Z,11.60
2018-08-19T10:20:27.710Z,10.40
2018-08-19T10:22:57.149Z,10.50
2018-08-19T10:25:25.597Z,8.90
2018-08-19T10:27:55.170Z,9.90
2018-08-19T10:30:23.538Z,8.73
2018-08-19T10:32:59.313Z,7.80
2018-08-19T10:35:27.865Z,8.73
2018-08-19T10:37:56.569Z,9.20
2018-08-19T10:40:25.064Z,9.87
2018-08-19T10:42:58.142Z,8.70
2018-08-19T10:45:26.860Z,8.33
2018-08-19T10:47:55.302Z,9.53
2018-08-19T10:50:26.523Z,9.20
2018-08-19T10:52:54.650Z,8.47
2018-08-19T10:55:23.102Z,8.40
2018-08-19T10:57:51.526Z,7.80
2018-08-19T11:00:26.266Z,7.60
2018-08-19T11:02:55.349Z,9.03
2018-08-19T11:05:23.978Z,7.70
2018-08-19T11:07:52.669Z,7.63
2018-08-19T11:10:22.133Z,6.80
2018-08-19T11:12:54.767Z,7.20
2018-08-19T11:15:32.786Z,7.10
2018-08-19T11:18:18.238Z,6.87
2018-08-19T11:20:49.921Z,7.42
2018-08-19T11:23:23.106Z,6.90
2018-08-19T11:25:52.473Z,6.72
2018-08-19T11:28:43.468Z,6.50
2018-08-19T11:31:20.677Z,6.60
2018-08-19T11:33:49.255Z,6.08
2018-08-19T11:36:17.681Z,7.17
2018-08-19T11:38:48.530Z,6.43
2018-08-19T11:41:17.857Z,6.87
2018-08-19T11:43:46.921Z,7.47
2018-08-19T11:46:15.659Z,6.73
2018-08-19T11:48:44.028Z,6.47
2018-08-19T11:51:13.165Z,6.67
2018-08-19T11:53:41.261Z,7.07
2018-08-19T11:56:10.182Z,6.33
2018-08-19T11:58:47.477Z,6.53
2018-08-19T12:01:16.981Z,6.90
2018-08-19T12:03:57.635Z,6.90
2018-08-19T12:06:30.801Z,6.37
2018-08-19T12:09:00.505Z,6.57
2018-08-19T12:11:31.417Z,6.63
2018-08-19T12:14:02.918Z,8.60
2018-08-19T12:16:31.470Z,7.30
2018-08-19T12:19:05.749Z,7.17
2018-08-19T12:21:38.054Z,8.30
2018-08-19T12:24:18.504Z,8.10
2018-08-19T12:26:47.042Z,7.87
2018-08-19T12:29:15.477Z,7.10
2018-08-19T12:31:44.493Z,6.90
2018-08-19T12:34:12.884Z,8.10
2018-08-19T12:36:41.361Z,8.33
2018-08-19T12:39:10.313Z,8.40
2018-08-19T12:41:44.307Z,9.80
2018-08-19T12:44:12.969Z,8.00
2018-08-19T12:46:48.677Z,7.35
2018-08-19T12:49:16.929Z,8.40
2018-08-19T12:51:45.677Z,7.97
2018-08-19T12:54:13.857Z,8.10
2018-08-19T12:56:42.482Z,7.83
2018-08-19T12:59:11.461Z,8.70
2018-08-19T13:01:39.906Z,8.60
2018-08-19T13:04:08.086Z,8.60
2018-08-19T13:06:37.410Z,8.75
2018-08-19T13:09:07.462Z,8.70
2018-08-19T13:11:35.901Z,9.60
2018-08-19T13:14:04.492Z,8.30
2018-08-19T13:16:33.526Z,9.30
2018-08-19T13:19:02.206Z,8.70
2018-08-19T13:21:30.661Z,8.33
2018-08-19T13:23:59.348Z,9.00
2018-08-19T13:26:27.781Z,8.60
2018-08-19T13:28:56.842Z,8.93
2018-08-19T13:31:30.520Z,8.10
2018-08-19T13:33:59.214Z,8.43
2018-08-19T13:36:27.645Z,8.20
2018-08-19T13:38:56.350Z,8.20
2018-08-19T13:41:24.802Z,8.53
2018-08-19T13:43:53.555Z,7.67
2018-08-19T13:46:22.174Z,8.47
2018-08-19T13:48:50.948Z,8.30
2018-08-19T13:51:19.477Z,7.80
2018-08-19T13:53:47.941Z,8.13
2018-08-19T13:56:16.398Z,8.13
2018-08-19T13:58:44.854Z,7.90
2018-08-19T14:01:13.378Z,7.00
2018-08-19T14:03:41.817Z,8.23
2018-08-19T14:06:10.469Z,8.30
2018-08-19T14:08:39.129Z,7.67
2018-08-19T14:11:08.341Z,8.37
2018-08-19T14:13:37.346Z,7.92
2018-08-19T14:16:05.470Z,8.70
2018-08-19T14:18:33.594Z,8.67
2018-08-19T14:21:02.122Z,9.23
2018-08-19T14:23:30.566Z,8.60
2018-08-19T14:25:59.293Z,8.68
2018-08-19T14:28:27.751Z,8.50
2018-08-19T14:30:56.414Z,9.40
2018-08-19T14:33:24.854Z,9.43
2018-08-19T14:35:53.737Z,9.10
2018-08-19T14:38:22.427Z,9.40
2018-08-19T14:40:51.462Z,9.00
2018-08-19T14:43:19.580Z,9.50
2018-08-19T14:45:47.669Z,8.50
2018-08-19T14:48:16.130Z,10.30
2018-08-19T14:50:45.202Z,9.43
2018-08-19T14:53:13.488Z,9.40
2018-08-19T14:55:41.829Z,9.28
2018-08-19T14:58:10.263Z,10.07
2018-08-19T15:00:38.662Z,9.90
2018-08-19T15:03:07.341Z,10.20
2018-08-19T15:05:35.789Z,10.20
2018-08-19T15:08:08.678Z,10.10
2018-08-19T15:10:37.593Z,9.85
2018-08-19T15:13:05.718Z,9.83
2018-08-19T15:15:34.089Z,10.00
2018-08-19T15:18:02.569Z,10.00
2018-08-19T15:20:33.577Z,9.50
2018-08-19T15:23:13.485Z,10.17
2018-08-19T15:25:42.174Z,10.88
2018-08-19T15:28:10.807Z,10.80
2018-08-19T15:30:40.734Z,9.80
2018-08-19T15:33:09.960Z,10.10
2018-08-19T15:35:38.845Z,10.07
2018-08-19T15:38:07.686Z,10.93
2018-08-19T15:40:42.604Z,10.00
2018-08-19T15:43:12.633Z,9.87
2018-08-19T15:45:41.362Z,9.90
2018-08-19T15:48:10.037Z,9.77
2018-08-19T15:50:38.679Z,11.20
2018-08-19T15:53:08.683Z,10.90
2018-08-19T15:55:38.397Z,10.32
2018-08-19T15:58:06.698Z,10.43
2018-08-19T16:00:38.006Z,9.87
2018-08-19T16:03:07.017Z,10.10
2018-08-19T16:05:38.022Z,9.57
2018-08-19T16:08:06.886Z,10.33
2018-08-19T16:10:35.597Z,9.95
2018-08-19T16:13:05.833Z,10.73
2018-08-19T16:15:34.793Z,9.60
2018-08-19T16:18:03.292Z,10.13
2018-08-19T16:20:31.479Z,10.40
2018-08-19T16:23:00.079Z,9.97
2018-08-19T16:25:28.472Z,10.40
2018-08-19T16:27:57.129Z,14.03
2018-08-19T16:30:25.505Z,11.70
2018-08-19T16:32:53.737Z,15.93
2018-08-19T16:35:22.193Z,10.83
2018-08-19T16:37:51.070Z,10.60
2018-08-19T16:40:19.198Z,10.00
2018-08-19T16:42:47.938Z,10.43
2018-08-19T16:45:16.285Z,9.33
2018-08-19T16:47:44.676Z,9.18
2018-08-19T16:50:13.477Z,9.10
2018-08-19T16:52:42.375Z,9.28
2018-08-19T16:55:10.718Z,8.83
2018-08-19T16:57:39.530Z,9.13
2018-08-19T17:00:08.951Z,9.10
2018-08-19T17:02:38.352Z,8.55
2018-08-19T17:05:16.569Z,9.07
2018-08-19T17:07:44.950Z,8.63
2018-08-19T17:10:13.493Z,8.40
2018-08-19T17:12:42.153Z,8.90
2018-08-19T17:15:10.889Z,8.40
2018-08-19T17:17:39.851Z,8.55
2018-08-19T17:20:08.384Z,8.77
2018-08-19T17:22:38.182Z,9.38
2018-08-19T17:25:06.331Z,8.40
2018-08-19T17:27:34.587Z,8.70
2018-08-19T17:30:04.049Z,8.83
2018-08-19T17:32:32.569Z,8.73
2018-08-19T17:35:01.137Z,9.50
2018-08-19T17:37:29.573Z,8.93
2018-08-19T17:39:57.763Z,8.30
2018-08-19T17:42:26.338Z,10.00
2018-08-19T17:44:55.100Z,9.20
2018-08-19T17:47:23.785Z,9.10
2018-08-19T17:49:52.321Z,9.90
2018-08-19T17:52:20.711Z,9.03
2018-08-19T17:54:49.586Z,9.13
2018-08-19T17:57:17.854Z,9.13
2018-08-19T17:59:46.134Z,8.30
2018-08-19T18:02:14.769Z,9.00
2018-08-19T18:04:46.185Z,8.53
2018-08-19T18:07:18.519Z,8.07
2018-08-19T18:09:52.441Z,8.38
2018-08-19T18:12:21.825Z,8.07
2018-08-19T18:14:50.430Z,7.63
2018-08-19T18:17:19.298Z,8.70
2018-08-19T18:19:48.530Z,8.50
2018-08-19T18:22:19.381Z,7.87
2018-08-19T18:24:56.305Z,8.38
2018-08-19T18:27:24.688Z,8.40
2018-08-19T18:29:53.411Z,7.87
2018-08-19T18:32:23.731Z,10.07
2018-08-19T18:34:52.453Z,8.37
2018-08-19T18:37:21.097Z,7.90
2018-08-19T18:39:49.713Z,8.20
2018-08-19T18:42:33.637Z,8.13
2018-08-19T18:45:06.381Z,8.17
2018-08-19T18:47:35.189Z,7.20
2018-08-19T18:50:08.066Z,8.97
2018-08-19T18:52:36.181Z,8.37
2018-08-19T18:55:04.950Z,8.80
2018-08-19T18:57:33.361Z,8.67
2018-08-19T19:00:01.801Z,8.70
2018-08-19T19:08:15.529Z,8.07
2018-08-19T19:13:38.474Z,8.20
2018-08-19T19:16:06.913Z,8.20
2018-08-19T19:18:35.436Z,8.20
2018-08-19T19:21:06.569Z,7.70
2018-08-19T19:23:38.633Z,7.27
2018-08-19T19:26:07.720Z,8.20
2018-08-19T19:28:36.390Z,8.13
2018-08-19T19:31:09.838Z,7.33
2018-08-19T19:33:38.342Z,7.87
2018-08-19T19:36:15.917Z,8.40
2018-08-19T19:38:50.411Z,7.53
2018-08-19T19:41:27.773Z,8.60
2018-08-19T19:43:56.212Z,8.00
2018-08-19T19:46:26.238Z,8.67
2018-08-19T19:48:54.883Z,10.43
2018-08-19T19:51:23.433Z,11.23
2018-08-19T19:53:51.597Z,9.60
2018-08-19T19:56:20.394Z,10.37
2018-08-19T19:58:50.010Z,9.25
2018-08-19T20:01:18.712Z,9.83
2018-08-19T20:03:54.293Z,10.30
2018-08-19T20:06:23.785Z,9.10
2018-08-19T20:08:52.586Z,9.30
2018-08-19T20:11:26.953Z,8.63
2018-08-19T20:13:59.804Z,7.73
2018-08-19T20:16:28.313Z,8.90
2018-08-19T20:18:56.765Z,8.30
2018-08-19T20:21:26.425Z,8.83
2018-08-19T20:23:55.822Z,8.50
2018-08-19T20:26:25.061Z,8.60
2018-08-19T20:28:56.573Z,8.13
2018-08-19T20:31:28.814Z,8.53
2018-08-19T20:33:57.326Z,8.20
2018-08-19T20:36:25.506Z,8.63
2018-08-19T20:38:53.613Z,8.93
2018-08-19T20:41:22.305Z,8.33
2018-08-19T20:43:50.637Z,8.20
2018-08-19T20:46:19.363Z,8.50
2018-08-19T20:48:48.209Z,8.80
2018-08-19T20:51:16.353Z,8.43
2018-08-19T20:53:44.785Z,9.83
2018-08-19T20:56:23.516Z,8.97
2018-08-19T20:58:51.621Z,9.07
2018-08-19T21:01:25.360Z,8.80
2018-08-19T21:03:53.977Z,9.00
2018-08-19T21:06:22.789Z,9.40
2018-08-19T21:08:51.665Z,8.83
2018-08-19T21:11:20.402Z,9.45
2018-08-19T21:13:48.521Z,8.20
2018-08-19T21:16:16.954Z,9.40
2018-08-19T21:18:45.581Z,8.87
2018-08-19T21:21:14.056Z,9.90
2018-08-19T21:23:42.786Z,9.03
2018-08-19T21:26:11.085Z,8.57
2018-08-19T21:28:39.527Z,9.10
2018-08-19T21:31:07.960Z,9.70
2018-08-19T21:33:36.703Z,10.05
2018-08-19T21:36:05.132Z,9.30
2018-08-19T21:38:33.589Z,9.40
2018-08-19T21:41:02.037Z,9.73
2018-08-19T21:43:31.245Z,9.47
2018-08-19T21:46:00.000Z,9.30
2018-08-19T21:48:28.677Z,9.03
2018-08-19T21:50:57.109Z,10.00
2018-08-19T21:53:25.576Z,9.63
2018-08-19T21:55:54.006Z,9.20
2018-08-19T21:58:22.989Z,10.00
2018-08-19T22:00:54.824Z,9.57
2018-08-19T22:03:28.813Z,8.40
2018-08-19T22:05:57.296Z,8.90
2018-08-19T22:08:25.473Z,9.20
2018-08-19T22:10:53.629Z,8.53
2018-08-19T22:13:21.793Z,9.10
2018-08-19T22:15:49.885Z,8.60
2018-08-19T22:18:20.319Z,9.40
2018-08-19T22:21:06.944Z,8.90
2018-08-19T22:23:40.321Z,8.57
2018-08-19T22:26:09.413Z,9.77
2018-08-19T22:28:39.271Z,8.70
2018-08-19T22:31:19.681Z,8.83
2018-08-19T22:33:50.950Z,9.77
2018-08-19T22:36:20.118Z,9.03
2018-08-19T22:38:48.569Z,8.97
2018-08-19T22:41:19.765Z,9.60
2018-08-19T22:43:48.301Z,9.57
2018-08-19T22:46:16.873Z,9.67
2018-08-19T22:48:45.807Z,9.80
2018-08-19T22:51:14.910Z,9.37
2018-08-19T22:53:43.359Z,9.90
2018-08-19T22:56:11.781Z,9.90
2018-08-19T22:58:40.253Z,8.40
2018-08-19T23:01:08.658Z,9.43
2018-08-19T23:03:36.993Z,8.60
2018-08-19T23:06:05.712Z,9.40
2018-08-19T23:08:34.474Z,10.00
2018-08-19T23:11:03.953Z,9.20
2018-08-19T23:13:43.750Z,9.50
2018-08-19T23:16:12.894Z,9.03
2018-08-19T23:18:42.466Z,9.63
2018-08-19T23:21:11.038Z,10.17
2018-08-19T23:23:39.467Z,10.47
2018-08-19T23:26:08.001Z,9.20
2018-08-19T23:28:36.757Z,9.73
2018-08-19T23:31:05.329Z,9.77
2018-08-19T23:33:33.528Z,11.20
2018-08-19T23:36:02.170Z,10.20
2018-08-19T23:38:30.842Z,8.90
2018-08-19T23:40:59.277Z,9.03
2018-08-19T23:43:27.783Z,9.30
2018-08-19T23:45:56.274Z,10.28
2018-08-19T23:48:24.917Z,9.63
2018-08-19T23:50:53.025Z,9.83
2018-08-19T23:53:22.002Z,9.18
2018-08-19T23:55:50.793Z,10.13
2018-08-19T23:58:18.905Z,9.30
